createdAt,value
2022-10-07T00:01:08.081Z,101540.53
2022-10-07T00:06:12.139Z,101539.38
2022-10-07T00:11:15.310Z,101539.38
2022-10-07T00:16:18.108Z,101534.03
2022-10-07T00:21:16.775Z,101533.19
2022-10-07T00:26:14.774Z,101526.34
2022-10-07T00:31:17.275Z,101520.16
2022-10-07T00:36:17.784Z,101513.09
2022-10-07T00:41:20.798Z,101514.75
2022-10-07T00:46:35.148Z,101501.06
2022-10-07T00:51:34.091Z,101507.63
2022-10-07T00:56:31.293Z,101500.56
2022-10-07T01:01:27.994Z,101493.00
2022-10-07T01:06:24.661Z,101486.25
2022-10-07T01:11:52.079Z,101490.75
2022-10-07T01:17:23.662Z,101491.78
2022-10-07T01:22:50.839Z,101476.84
2022-10-07T01:28:00.718Z,101472.19
2022-10-07T01:33:02.974Z,101466.41
2022-10-07T01:38:04.479Z,101448.78
2022-10-07T01:43:01.506Z,101440.88
2022-10-07T01:47:59.034Z,101433.34
2022-10-07T01:53:15.294Z,101435.16
2022-10-07T01:58:18.542Z,101425.44
2022-10-07T02:04:14.777Z,101419.22
2022-10-07T02:09:35.778Z,101424.41
2022-10-07T02:14:46.101Z,101417.63
2022-10-07T02:19:48.276Z,101407.72
2022-10-07T02:24:47.723Z,101405.59
2022-10-07T02:29:47.747Z,101400.09
2022-10-07T02:34:46.116Z,101387.34
2022-10-07T02:39:43.594Z,101384.38
2022-10-07T02:45:06.234Z,101374.59
2022-10-07T02:50:07.784Z,101375.00
2022-10-07T02:55:08.239Z,101377.19
2022-10-07T03:00:10.909Z,101365.88
2022-10-07T03:05:09.282Z,101357.53
2022-10-07T03:10:08.959Z,101349.78
2022-10-07T03:15:05.914Z,101355.66
2022-10-07T03:20:02.274Z,101344.38
2022-10-07T03:24:58.654Z,101345.25
2022-10-07T03:29:55.658Z,101343.34
2022-10-07T03:34:52.929Z,101336.44
2022-10-07T03:39:50.069Z,101324.41
2022-10-07T03:44:50.060Z,101337.34
2022-10-07T03:49:46.418Z,101327.97
2022-10-07T03:54:43.516Z,101322.88
2022-10-07T03:59:40.808Z,101322.75
2022-10-07T04:04:37.858Z,101319.16
2022-10-07T04:09:34.202Z,101323.81
2022-10-07T04:14:30.546Z,101317.53
2022-10-07T04:19:26.914Z,101313.94
2022-10-07T04:24:23.461Z,101310.69
2022-10-07T04:29:19.968Z,101305.53
2022-10-07T04:34:16.339Z,101305.41
2022-10-07T04:39:13.339Z,101299.22
2022-10-07T04:44:09.793Z,101298.03
2022-10-07T04:49:06.170Z,101305.03
2022-10-07T04:54:02.727Z,101298.47
2022-10-07T04:58:59.101Z,101290.03
2022-10-07T05:03:55.479Z,101281.94
2022-10-07T05:08:54.189Z,101285.44
2022-10-07T05:13:52.402Z,101277.47
2022-10-07T05:18:48.805Z,101281.31
2022-10-07T05:23:45.602Z,101279.31
2022-10-07T05:28:44.052Z,101277.53
2022-10-07T05:33:41.366Z,101269.88
2022-10-07T05:38:38.265Z,101269.75
2022-10-07T05:43:38.253Z,101264.19
2022-10-07T05:48:39.202Z,101255.25
2022-10-07T05:53:36.753Z,101263.63
2022-10-07T05:58:35.837Z,101253.09
2022-10-07T06:03:33.377Z,101249.84
2022-10-07T06:08:29.882Z,101238.56
2022-10-07T06:13:26.273Z,101233.59
2022-10-07T06:18:22.733Z,101216.25
2022-10-07T06:23:19.103Z,101206.63
2022-10-07T06:28:17.343Z,101198.28
2022-10-07T06:33:13.888Z,101193.25
2022-10-07T06:38:10.301Z,101196.75
2022-10-07T06:43:06.654Z,101192.38
2022-10-07T06:48:03.045Z,101203.34
2022-10-07T06:52:59.933Z,101197.00
2022-10-07T06:57:56.437Z,101201.59
2022-10-07T07:02:52.794Z,101200.47
2022-10-07T07:07:49.620Z,101194.44
2022-10-07T07:12:46.737Z,101195.53
2022-10-07T07:17:43.722Z,101194.81
2022-10-07T07:22:41.372Z,101196.97
2022-10-07T07:27:37.775Z,101202.47
2022-10-07T07:32:34.108Z,101205.03
2022-10-07T07:37:31.660Z,101205.19
2022-10-07T07:42:28.088Z,101202.22
2022-10-07T07:47:24.548Z,101200.34
2022-10-07T07:52:20.917Z,101196.47
2022-10-07T07:57:17.332Z,101194.56
2022-10-07T08:02:13.732Z,101199.00
2022-10-07T08:07:13.111Z,101195.41
2022-10-07T08:12:09.464Z,101192.72
2022-10-07T08:17:05.802Z,101192.00
2022-10-07T08:22:02.189Z,101189.97
2022-10-07T08:26:58.614Z,101189.66
2022-10-07T08:31:55.025Z,101176.63
2022-10-07T08:36:52.351Z,101185.09
2022-10-07T08:42:13.516Z,101182.75
2022-10-07T08:47:13.220Z,101174.94
2022-10-07T08:52:25.185Z,101172.28
2022-10-07T08:57:42.731Z,101169.47
2022-10-07T09:03:08.760Z,101155.41
2022-10-07T09:08:14.265Z,101158.56
2022-10-07T09:13:20.054Z,101158.59
2022-10-07T09:18:20.156Z,101144.50
2022-10-07T09:23:16.607Z,101142.44
2022-10-07T09:28:16.342Z,101143.22
2022-10-07T09:33:20.027Z,101140.38
2022-10-07T09:38:42.803Z,101133.31
2022-10-07T09:43:43.103Z,101123.19
2022-10-07T09:48:52.716Z,101124.00
2022-10-07T09:54:04.673Z,101120.19
2022-10-07T09:59:20.565Z,101116.94
2022-10-07T10:04:19.612Z,101105.88
2022-10-07T10:09:23.908Z,101103.09
2022-10-07T10:14:29.098Z,101102.44
2022-10-07T10:19:27.365Z,101105.22
2022-10-07T10:24:43.385Z,101096.19
2022-10-07T10:29:55.345Z,101087.34
2022-10-07T10:35:30.889Z,101091.47
2022-10-07T10:40:36.256Z,101065.88
2022-10-07T10:46:08.863Z,101057.81
2022-10-07T10:51:13.384Z,101053.06
2022-10-07T10:56:20.288Z,101048.72
2022-10-07T11:01:29.219Z,101048.44
2022-10-07T11:06:28.520Z,101029.66
2022-10-07T11:11:26.641Z,101011.94
2022-10-07T11:16:30.844Z,101004.03
2022-10-07T11:21:37.938Z,100998.09
2022-10-07T11:26:43.775Z,100996.53
2022-10-07T11:31:44.547Z,100983.38
2022-10-07T11:36:56.702Z,100973.63
2022-10-07T11:42:07.829Z,100963.59
2022-10-07T11:47:11.160Z,100950.63
2022-10-07T11:52:18.231Z,100944.34
2022-10-07T11:57:31.632Z,100946.88
2022-10-07T12:02:28.111Z,100925.91
2022-10-07T12:07:33.500Z,100912.81
2022-10-07T12:12:42.520Z,100899.09
2022-10-07T12:17:54.125Z,100890.38
2022-10-07T12:23:22.458Z,100887.25
2022-10-07T12:28:24.009Z,100885.28
2022-10-07T12:33:37.523Z,100871.38
2022-10-07T12:38:33.842Z,100866.97
2022-10-07T12:43:47.949Z,100863.00
2022-10-07T12:49:08.796Z,100862.25
2022-10-07T12:54:16.303Z,100857.06
2022-10-07T12:59:37.577Z,100847.94
2022-10-07T13:04:36.691Z,100847.66
2022-10-07T13:10:16.427Z,100828.81
2022-10-07T13:15:26.625Z,100815.03
2022-10-07T13:20:34.599Z,100819.22
2022-10-07T13:25:31.656Z,100819.41
2022-10-07T13:30:41.097Z,100800.16
2022-10-07T13:35:39.641Z,100796.56
2022-10-07T13:40:36.400Z,100782.72
2022-10-07T13:45:41.102Z,100768.19
2022-10-07T13:50:37.994Z,100766.81
2022-10-07T13:55:35.908Z,100753.63
2022-10-07T14:00:33.248Z,100764.31
2022-10-07T14:05:31.297Z,100750.00
2022-10-07T14:10:29.224Z,100751.31
2022-10-07T14:15:35.288Z,100733.56
2022-10-07T14:20:48.948Z,100727.19
2022-10-07T14:25:48.046Z,100721.47
2022-10-07T14:31:05.512Z,100715.59
2022-10-07T14:36:20.272Z,100708.19
2022-10-07T14:41:21.921Z,100696.66
2022-10-07T14:46:21.582Z,100694.13
2022-10-07T14:51:24.438Z,100687.72
2022-10-07T14:56:31.316Z,100677.66
2022-10-07T15:01:29.691Z,100678.53
2022-10-07T15:06:26.327Z,100679.09
2022-10-07T15:11:22.722Z,100670.50
2022-10-07T15:16:26.157Z,100660.66
2022-10-07T15:21:23.193Z,100655.50
2022-10-07T15:26:23.474Z,100648.47
2022-10-07T15:31:19.969Z,100645.19
2022-10-07T15:36:17.835Z,100638.28
2022-10-07T15:41:36.986Z,100635.38
2022-10-07T15:46:34.644Z,100628.22
2022-10-07T15:51:31.699Z,100621.34
2022-10-07T15:56:28.441Z,100615.47
2022-10-07T16:01:28.074Z,100616.91
2022-10-07T16:06:26.715Z,100609.16
2022-10-07T16:11:24.247Z,100605.63
2022-10-07T16:16:23.813Z,100598.44
2022-10-07T16:21:22.613Z,100598.44
2022-10-07T16:26:21.415Z,100605.38
2022-10-07T16:31:17.895Z,100600.78
2022-10-07T16:36:15.507Z,100589.44
2022-10-07T16:41:12.002Z,100587.88
2022-10-07T16:46:13.428Z,100590.47
2022-10-07T16:51:11.762Z,100584.41
2022-10-07T16:56:08.584Z,100582.19
2022-10-07T17:01:09.760Z,100581.78
2022-10-07T17:06:08.168Z,100577.69
2022-10-07T17:11:05.286Z,100577.66
2022-10-07T17:16:01.666Z,100570.97
2022-10-07T17:20:59.315Z,100569.16
2022-10-07T17:25:56.074Z,100570.66
2022-10-07T17:30:52.599Z,100566.25
2022-10-07T17:35:49.075Z,100558.63
2022-10-07T17:40:45.729Z,100546.78
2022-10-07T17:45:42.095Z,100543.66
2022-10-07T17:50:39.087Z,100541.09
2022-10-07T17:55:35.423Z,100543.00
2022-10-07T18:00:32.124Z,100538.19
2022-10-07T18:05:28.778Z,100538.78
2022-10-07T18:10:25.818Z,100537.41
2022-10-07T18:15:23.321Z,100535.91
2022-10-07T18:20:21.746Z,100525.31
2022-10-07T18:25:18.014Z,100529.97
2022-10-07T18:30:14.482Z,100528.00
2022-10-07T18:35:10.972Z,100525.56
2022-10-07T18:40:07.767Z,100516.56
2022-10-07T18:45:04.636Z,100509.94
2022-10-07T18:50:01.057Z,100506.34
2022-10-07T18:54:57.456Z,100493.31
2022-10-07T18:59:53.969Z,100486.75
2022-10-07T19:04:50.327Z,100493.59
2022-10-07T19:09:46.652Z,100490.19
2022-10-07T19:14:43.180Z,100485.00
2022-10-07T19:19:40.861Z,100486.50
2022-10-07T19:24:56.148Z,100485.97
2022-10-07T19:29:52.649Z,100491.34
2022-10-07T19:34:48.964Z,100484.97
2022-10-07T19:39:45.488Z,100494.31
2022-10-07T19:44:41.856Z,100483.97
2022-10-07T19:49:38.409Z,100479.31
2022-10-07T19:54:36.223Z,100480.78
2022-10-07T19:59:32.563Z,100476.94
2022-10-07T20:04:28.947Z,100480.75
2022-10-07T20:09:25.520Z,100475.41
2022-10-07T20:14:22.064Z,100467.97
2022-10-07T20:19:19.560Z,100481.50
2022-10-07T20:24:17.015Z,100482.66
2022-10-07T20:29:16.123Z,100484.56
2022-10-07T20:34:15.773Z,100480.56
2022-10-07T20:39:34.143Z,100472.53
2022-10-07T20:44:30.674Z,100464.69
2022-10-07T20:49:28.816Z,100464.25
2022-10-07T20:54:26.929Z,100464.59
2022-10-07T20:59:25.328Z,100470.16
2022-10-07T21:04:22.499Z,100480.50
2022-10-07T21:09:20.208Z,100490.78
2022-10-07T21:14:17.689Z,100492.25
2022-10-07T21:19:15.044Z,100482.72
2022-10-07T21:24:11.477Z,100476.72
2022-10-07T21:29:08.413Z,100475.69
2022-10-07T21:34:07.868Z,100465.13
2022-10-07T21:39:05.674Z,100467.16
2022-10-07T21:44:04.268Z,100455.72
2022-10-07T21:49:00.816Z,100456.78
2022-10-07T21:54:00.095Z,100446.25
2022-10-07T21:58:57.865Z,100439.19
2022-10-07T22:03:59.633Z,100444.19
2022-10-07T22:08:56.582Z,100442.94
2022-10-07T22:13:55.099Z,100441.09
2022-10-07T22:18:53.687Z,100432.56
2022-10-07T22:23:50.923Z,100443.13
2022-10-07T22:28:47.506Z,100437.00
2022-10-07T22:33:44.923Z,100432.59
2022-10-07T22:38:41.277Z,100424.75
2022-10-07T22:43:44.190Z,100424.38
2022-10-07T22:48:43.127Z,100413.16
2022-10-07T22:53:41.132Z,100405.75
2022-10-07T22:58:39.146Z,100404.34
2022-10-07T23:03:38.439Z,100393.84
2022-10-07T23:08:36.480Z,100383.22
2022-10-07T23:13:34.570Z,100377.94
2022-10-07T23:18:31.365Z,100376.66
2022-10-07T23:23:28.865Z,100373.25
2022-10-07T23:28:26.188Z,100364.69
2022-10-07T23:33:22.732Z,100360.75
2022-10-07T23:38:19.067Z,100354.81
2022-10-07T23:43:16.204Z,100347.84
2022-10-07T23:48:14.939Z,100347.19
2022-10-07T23:53:11.300Z,100344.97
2022-10-07T23:58:08.267Z,100343.38
